createdAt,value
2019-04-06T00:01:57.226Z,99765.00
2019-04-06T00:04:25.571Z,99769.00
2019-04-06T00:06:54.004Z,99758.00
2019-04-06T00:09:22.332Z,99757.00
2019-04-06T00:11:52.155Z,99760.00
2019-04-06T00:14:20.553Z,99762.00
2019-04-06T00:16:49.154Z,99766.00
2019-04-06T00:19:17.618Z,99764.00
2019-04-06T00:21:46.016Z,99757.00
2019-04-06T00:24:14.586Z,99767.00
2019-04-06T00:26:43.376Z,99760.00
2019-04-06T00:29:11.725Z,99764.00
2019-04-06T00:32:08.636Z,99770.00
2019-04-06T00:34:37.501Z,99773.00
2019-04-06T00:37:06.012Z,99763.00
2019-04-06T00:39:34.480Z,99771.00
2019-04-06T00:42:03.636Z,99760.00
2019-04-06T00:44:32.144Z,99760.00
2019-04-06T00:47:00.480Z,99762.00
2019-04-06T00:49:29.235Z,99762.00
2019-04-06T00:51:58.178Z,99767.00
2019-04-06T00:54:26.451Z,99767.00
2019-04-06T00:56:54.929Z,99762.00
2019-04-06T00:59:23.987Z,99758.00
2019-04-06T01:01:54.479Z,99761.00
2019-04-06T01:04:23.390Z,99759.00
2019-04-06T01:06:52.136Z,99762.00
2019-04-06T01:09:21.015Z,99753.00
2019-04-06T01:11:49.758Z,99752.00
2019-04-06T01:14:18.134Z,99765.00
2019-04-06T01:16:46.854Z,99761.00
2019-04-06T01:19:15.275Z,99756.00
2019-04-06T01:21:43.958Z,99761.00
2019-04-06T01:24:12.674Z,99754.00
2019-04-06T01:26:40.947Z,99759.00
2019-04-06T01:29:09.448Z,99759.00
2019-04-06T01:31:37.976Z,99759.00
2019-04-06T01:34:06.780Z,99770.00
2019-04-06T01:36:35.440Z,99758.00
2019-04-06T01:39:06.164Z,99764.00
2019-04-06T01:41:34.671Z,99751.00
2019-04-06T01:44:03.125Z,99754.00
2019-04-06T01:46:32.062Z,99766.00
2019-04-06T01:49:01.281Z,99762.00
2019-04-06T01:51:29.741Z,99764.00
2019-04-06T01:53:58.488Z,99755.00
2019-04-06T01:56:27.404Z,99752.00
2019-04-06T01:58:56.022Z,99754.00
2019-04-06T02:01:43.993Z,99756.00
2019-04-06T02:04:14.393Z,99758.00
2019-04-06T02:06:42.746Z,99758.00
2019-04-06T02:09:11.073Z,99767.00
2019-04-06T02:11:39.802Z,99765.00
2019-04-06T02:14:08.254Z,99766.00
2019-04-06T02:16:37.482Z,99767.00
2019-04-06T02:19:06.209Z,99766.00
2019-04-06T02:21:35.095Z,99772.00
2019-04-06T02:24:03.924Z,99766.00
2019-04-06T02:26:32.810Z,99772.00
2019-04-06T02:29:02.046Z,99781.00
2019-04-06T02:31:48.932Z,99778.00
2019-04-06T02:34:29.071Z,99779.00
2019-04-06T02:37:32.913Z,99779.00
2019-04-06T02:40:39.427Z,99784.00
2019-04-06T02:43:11.633Z,99786.00
2019-04-06T02:45:40.899Z,99784.00
2019-04-06T02:48:09.425Z,99782.00
2019-04-06T02:50:37.880Z,99777.00
2019-04-06T02:53:06.605Z,99779.00
2019-04-06T02:55:35.972Z,99784.00
2019-04-06T02:58:04.612Z,99785.00
2019-04-06T03:00:33.650Z,99774.00
2019-04-06T03:03:02.317Z,99782.00
2019-04-06T03:05:32.602Z,99775.00
2019-04-06T03:08:01.311Z,99784.00
2019-04-06T03:10:30.246Z,99790.00
2019-04-06T03:12:58.558Z,99785.00
2019-04-06T03:15:27.008Z,99784.00
2019-04-06T03:17:55.954Z,99784.00
2019-04-06T03:20:24.727Z,99793.00
2019-04-06T03:22:53.211Z,99787.00
2019-04-06T03:25:21.749Z,99791.00
2019-04-06T03:27:50.090Z,99794.00
2019-04-06T03:30:18.992Z,99793.00
2019-04-06T03:32:47.432Z,99788.00
2019-04-06T03:35:15.888Z,99792.00
2019-04-06T03:37:44.187Z,99789.00
2019-04-06T03:40:13.189Z,99784.00
2019-04-06T03:42:41.888Z,99788.00
2019-04-06T03:45:10.330Z,99790.00
2019-04-06T03:47:38.982Z,99788.00
2019-04-06T03:50:07.868Z,99788.00
2019-04-06T03:52:36.396Z,99789.00
2019-04-06T03:55:07.267Z,99788.00
2019-04-06T03:57:35.850Z,99783.00
2019-04-06T04:00:06.374Z,99787.00
2019-04-06T04:02:35.119Z,99784.00
2019-04-06T04:05:06.289Z,99791.00
2019-04-06T04:07:37.111Z,99791.00
2019-04-06T04:10:06.642Z,99792.00
2019-04-06T04:12:35.749Z,99789.00
2019-04-06T04:15:05.206Z,99794.00
2019-04-06T04:17:33.929Z,99788.00
2019-04-06T04:20:03.090Z,99798.00
2019-04-06T04:22:34.581Z,99789.00
2019-04-06T04:25:02.972Z,99787.00
2019-04-06T04:27:31.495Z,99788.00
2019-04-06T04:29:59.865Z,99788.00
2019-04-06T04:32:28.554Z,99788.00
2019-04-06T04:34:57.343Z,99794.00
2019-04-06T04:37:25.965Z,99798.00
2019-04-06T04:39:54.338Z,99793.00
2019-04-06T04:42:23.538Z,99792.00
2019-04-06T04:44:51.982Z,99790.00
2019-04-06T04:47:20.520Z,99805.00
2019-04-06T04:49:49.231Z,99800.00
2019-04-06T04:52:17.743Z,99805.00
2019-04-06T04:54:46.475Z,99802.00
2019-04-06T04:57:15.108Z,99818.00
2019-04-06T04:59:43.791Z,99802.00
2019-04-06T05:02:13.277Z,99801.00
2019-04-06T05:04:41.821Z,99809.00
2019-04-06T05:07:10.502Z,99803.00
2019-04-06T05:09:41.316Z,99805.00
2019-04-06T05:12:10.270Z,99818.00
2019-04-06T05:15:03.892Z,99811.00
2019-04-06T05:17:32.707Z,99810.00
2019-04-06T05:20:01.324Z,99810.00
2019-04-06T05:22:30.056Z,99809.00
2019-04-06T05:24:58.822Z,99826.00
2019-04-06T05:27:27.348Z,99826.00
2019-04-06T05:29:55.636Z,99824.00
2019-04-06T05:32:24.481Z,99824.00
2019-04-06T05:34:52.815Z,99812.00
2019-04-06T05:37:21.453Z,99830.00
2019-04-06T05:39:50.263Z,99825.00
2019-04-06T05:42:18.817Z,99828.00
2019-04-06T05:44:47.514Z,99823.00
2019-04-06T05:47:16.086Z,99825.00
2019-04-06T05:49:44.768Z,99826.00
2019-04-06T05:52:13.151Z,99834.00
2019-04-06T05:54:41.944Z,99831.00
2019-04-06T05:57:10.521Z,99821.00
2019-04-06T05:59:40.972Z,99838.00
2019-04-06T06:02:10.045Z,99825.00
2019-04-06T06:04:40.997Z,99829.00
2019-04-06T06:07:09.660Z,99830.00
2019-04-06T06:09:38.360Z,99819.00
2019-04-06T06:12:10.403Z,99824.00
2019-04-06T06:14:39.125Z,99827.00
2019-04-06T06:17:07.858Z,99818.00
2019-04-06T06:19:36.201Z,99833.00
2019-04-06T06:22:05.207Z,99825.00
2019-04-06T06:24:34.987Z,99826.00
2019-04-06T06:27:04.094Z,99831.00
2019-04-06T06:29:32.528Z,99824.00
2019-04-06T06:32:01.451Z,99826.00
2019-04-06T06:34:29.815Z,99831.00
2019-04-06T06:36:58.839Z,99832.00
2019-04-06T06:39:27.494Z,99832.00
2019-04-06T06:41:55.883Z,99834.00
2019-04-06T06:44:24.668Z,99844.00
2019-04-06T06:46:53.560Z,99843.00
2019-04-06T06:49:22.290Z,99834.00
2019-04-06T06:51:51.057Z,99834.00
2019-04-06T06:54:19.922Z,99841.00
2019-04-06T06:56:48.976Z,99836.00
2019-04-06T06:59:17.702Z,99834.00
2019-04-06T07:01:46.309Z,99850.00
2019-04-06T07:04:14.999Z,99839.00
2019-04-06T07:06:43.419Z,99840.00
2019-04-06T07:09:12.081Z,99844.00
2019-04-06T07:11:41.216Z,99844.00
2019-04-06T07:14:11.707Z,99841.00
2019-04-06T07:16:40.084Z,99842.00
2019-04-06T07:19:08.640Z,99850.00
2019-04-06T07:21:37.070Z,99849.00
2019-04-06T07:24:05.959Z,99864.00
2019-04-06T07:26:35.047Z,99868.00
2019-04-06T07:29:04.645Z,99877.00
2019-04-06T07:31:33.207Z,99879.00
2019-04-06T07:34:02.192Z,99889.00
2019-04-06T07:36:30.979Z,99890.00
2019-04-06T07:38:59.743Z,99883.00
2019-04-06T07:41:29.059Z,99885.00
2019-04-06T07:43:58.172Z,99881.00
2019-04-06T07:46:26.573Z,99885.00
2019-04-06T07:48:55.505Z,99882.00
2019-04-06T07:51:24.662Z,99887.00
2019-04-06T07:53:53.993Z,99884.00
2019-04-06T07:56:23.523Z,99883.00
2019-04-06T07:58:52.109Z,99896.00
2019-04-06T08:01:20.681Z,99881.00
2019-04-06T08:03:52.009Z,99881.00
2019-04-06T08:06:20.501Z,99878.00
2019-04-06T08:08:49.039Z,99887.00
2019-04-06T08:11:17.583Z,99890.00
2019-04-06T08:13:46.623Z,99882.00
2019-04-06T08:16:17.104Z,99885.00
2019-04-06T08:18:46.014Z,99886.00
2019-04-06T08:21:14.997Z,99888.00
2019-04-06T08:23:44.161Z,99898.00
2019-04-06T08:26:13.069Z,99876.00
2019-04-06T08:28:42.060Z,99883.00
2019-04-06T08:31:10.753Z,99877.00
2019-04-06T08:33:39.776Z,99891.00
2019-04-06T08:36:08.673Z,99880.00
2019-04-06T08:38:37.790Z,99875.00
2019-04-06T08:41:06.380Z,99880.00
2019-04-06T08:43:35.393Z,99881.00
2019-04-06T08:46:04.705Z,99870.00
2019-04-06T08:48:33.358Z,99872.00
2019-04-06T08:51:01.763Z,99876.00
2019-04-06T08:53:30.788Z,99870.00
2019-04-06T08:55:59.597Z,99871.00
2019-04-06T08:58:28.159Z,99870.00
2019-04-06T09:00:56.961Z,99855.00
2019-04-06T09:03:26.072Z,99846.00
2019-04-06T09:05:54.854Z,99862.00
2019-04-06T09:08:23.506Z,99856.00
2019-04-06T09:10:52.227Z,99852.00
2019-04-06T09:13:21.091Z,99845.00
2019-04-06T09:15:49.964Z,99850.00
2019-04-06T09:18:20.604Z,99843.00
2019-04-06T09:20:49.432Z,99847.00
2019-04-06T09:23:18.207Z,99849.00
2019-04-06T09:25:47.198Z,99850.00
2019-04-06T09:28:15.765Z,99848.00
2019-04-06T09:30:44.787Z,99841.00
2019-04-06T09:33:14.092Z,99847.00
2019-04-06T09:35:42.748Z,99843.00
2019-04-06T09:38:18.117Z,99849.00
2019-04-06T09:40:48.579Z,99848.00
2019-04-06T09:43:17.335Z,99837.00
2019-04-06T09:46:04.715Z,99850.00
2019-04-06T09:48:58.816Z,99832.00
2019-04-06T09:51:59.124Z,99831.00
2019-04-06T09:54:52.453Z,99841.00
2019-04-06T09:57:43.575Z,99840.00
2019-04-06T10:00:29.452Z,99836.00
2019-04-06T10:03:17.856Z,99838.00
2019-04-06T10:06:02.711Z,99832.00
2019-04-06T10:09:06.214Z,99832.00
2019-04-06T10:11:54.776Z,99835.00
2019-04-06T10:14:43.246Z,99831.00
2019-04-06T10:17:42.612Z,99829.00
2019-04-06T10:20:35.565Z,99817.00
2019-04-06T10:23:20.323Z,99827.00
2019-04-06T10:26:11.867Z,99823.00
2019-04-06T10:29:00.357Z,99804.00
2019-04-06T10:31:56.307Z,99819.00
2019-04-06T10:34:50.993Z,99806.00
2019-04-06T10:37:45.102Z,99812.00
2019-04-06T10:40:39.588Z,99807.00
2019-04-06T10:43:40.144Z,99809.00
2019-04-06T10:46:27.304Z,99805.00
2019-04-06T10:49:13.752Z,99796.00
2019-04-06T10:52:02.087Z,99811.00
2019-04-06T10:54:49.140Z,99805.00
2019-04-06T10:57:41.360Z,99810.00
2019-04-06T11:00:28.980Z,99806.00
2019-04-06T11:03:07.643Z,99806.00
2019-04-06T11:05:44.585Z,99811.00
2019-04-06T11:08:29.426Z,99806.00
2019-04-06T11:11:19.828Z,99804.00
2019-04-06T11:14:04.879Z,99805.00
2019-04-06T11:16:51.753Z,99803.00
2019-04-06T11:19:42.740Z,99802.00
2019-04-06T11:22:33.618Z,99797.00
2019-04-06T11:25:20.685Z,99804.00
2019-04-06T11:28:14.802Z,99800.00
2019-04-06T11:31:04.180Z,99796.00
2019-04-06T11:33:53.794Z,99791.00
2019-04-06T11:36:31.783Z,99798.00
2019-04-06T11:39:25.755Z,99786.00
2019-04-06T11:42:13.478Z,99787.00
2019-04-06T11:45:13.632Z,99788.00
2019-04-06T11:48:06.843Z,99786.00
2019-04-06T11:50:53.732Z,99785.00
2019-04-06T11:53:50.481Z,99780.00
2019-04-06T11:56:37.243Z,99780.00
2019-04-06T11:59:16.812Z,99777.00
2019-04-06T12:02:11.615Z,99769.00
2019-04-06T12:04:55.414Z,99781.00
2019-04-06T12:07:42.262Z,99765.00
2019-04-06T12:10:42.492Z,99759.00
2019-04-06T12:13:33.172Z,99763.00
2019-04-06T12:16:21.498Z,99755.00
2019-04-06T12:19:11.411Z,99758.00
2019-04-06T12:21:58.280Z,99747.00
2019-04-06T12:24:46.983Z,99749.00
2019-04-06T12:27:27.613Z,99750.00
2019-04-06T12:30:03.604Z,99744.00
2019-04-06T12:32:51.544Z,99743.00
2019-04-06T12:35:42.848Z,99735.00
2019-04-06T12:38:37.122Z,99726.00
2019-04-06T12:41:23.767Z,99724.00
2019-04-06T12:44:11.783Z,99714.00
2019-04-06T12:47:12.101Z,99719.00
2019-04-06T12:49:55.573Z,99714.00
2019-04-06T12:52:42.466Z,99707.00
2019-04-06T12:55:31.119Z,99708.00
2019-04-06T12:58:31.524Z,99698.00
2019-04-06T13:01:17.865Z,99691.00
2019-04-06T13:04:24.518Z,99689.00
2019-04-06T13:07:12.424Z,99703.00
2019-04-06T13:10:03.799Z,99704.00
2019-04-06T13:12:48.352Z,99689.00
2019-04-06T13:15:45.932Z,99684.00
2019-04-06T13:18:40.168Z,99687.00
2019-04-06T13:21:46.353Z,99683.00
2019-04-06T13:24:29.019Z,99683.00
2019-04-06T13:27:08.558Z,99682.00
2019-04-06T13:29:51.239Z,99686.00
2019-04-06T13:32:52.071Z,99676.00
2019-04-06T13:35:36.607Z,99677.00
2019-04-06T13:38:30.468Z,99691.00
2019-04-06T13:41:16.351Z,99681.00
2019-04-06T13:43:56.677Z,99683.00
2019-04-06T13:46:35.926Z,99667.00
2019-04-06T13:49:36.387Z,99675.00
2019-04-06T13:52:25.951Z,99669.00
2019-04-06T13:55:05.374Z,99654.00
2019-04-06T13:57:53.708Z,99662.00
2019-04-06T14:00:47.820Z,99668.00
2019-04-06T14:03:29.487Z,99655.00
2019-04-06T14:06:18.127Z,99655.00
2019-04-06T14:09:05.260Z,99650.00
2019-04-06T14:11:40.991Z,99657.00
2019-04-06T14:14:29.845Z,99656.00
2019-04-06T14:17:21.090Z,99654.00
2019-04-06T14:20:21.424Z,99651.00
2019-04-06T14:23:27.448Z,99647.00
2019-04-06T14:26:21.891Z,99654.00
2019-04-06T14:29:20.981Z,99651.00
2019-04-06T14:32:04.309Z,99651.00
2019-04-06T14:34:49.090Z,99650.00
2019-04-06T14:37:36.498Z,99650.00
2019-04-06T14:40:24.839Z,99640.00
2019-04-06T14:43:04.536Z,99647.00
2019-04-06T14:46:03.164Z,99647.00
2019-04-06T14:49:09.583Z,99640.00
2019-04-06T14:51:40.280Z,99646.00
2019-04-06T14:54:46.398Z,99644.00
2019-04-06T14:57:34.476Z,99647.00
2019-04-06T15:00:16.661Z,99645.00
2019-04-06T15:03:22.612Z,99644.00
2019-04-06T15:06:03.923Z,99648.00
2019-04-06T15:08:52.441Z,99642.00
2019-04-06T15:11:43.566Z,99645.00
2019-04-06T15:14:34.907Z,99636.00
2019-04-06T15:17:21.443Z,99643.00
2019-04-06T15:20:12.692Z,99634.00
2019-04-06T15:22:53.199Z,99640.00
2019-04-06T15:25:39.274Z,99624.00
2019-04-06T15:28:26.435Z,99633.00
2019-04-06T15:31:23.388Z,99632.00
2019-04-06T15:34:11.810Z,99625.00
2019-04-06T15:36:46.783Z,99634.00
2019-04-06T15:39:36.922Z,99633.00
2019-04-06T15:42:37.552Z,99629.00
2019-04-06T15:45:22.366Z,99630.00
2019-04-06T15:48:05.275Z,99630.00
2019-04-06T15:50:59.964Z,99624.00
2019-04-06T15:53:49.740Z,99632.00
2019-04-06T15:56:42.825Z,99624.00
2019-04-06T15:59:34.036Z,99614.00
2019-04-06T16:02:11.839Z,99625.00
2019-04-06T16:05:08.775Z,99637.00
2019-04-06T16:07:59.611Z,99633.00
2019-04-06T16:10:46.360Z,99629.00
2019-04-06T16:13:34.927Z,99633.00
2019-04-06T16:16:10.406Z,99633.00
2019-04-06T16:18:57.613Z,99640.00
2019-04-06T16:21:44.850Z,99644.00
2019-04-06T16:24:36.163Z,99642.00
2019-04-06T16:27:29.998Z,99644.00
2019-04-06T16:30:15.647Z,99636.00
2019-04-06T16:32:53.245Z,99646.00
2019-04-06T16:35:53.787Z,99648.00
2019-04-06T16:38:41.501Z,99643.00
2019-04-06T16:41:32.574Z,99642.00
2019-04-06T16:44:06.570Z,99642.00
2019-04-06T16:46:50.936Z,99646.00
2019-04-06T16:49:39.153Z,99637.00
2019-04-06T16:52:27.663Z,99636.00
2019-04-06T16:55:18.769Z,99648.00
2019-04-06T16:57:58.001Z,99640.00
2019-04-06T17:00:47.317Z,99647.00
2019-04-06T17:03:43.143Z,99641.00
2019-04-06T17:06:31.898Z,99638.00
2019-04-06T17:09:18.406Z,99632.00
2019-04-06T17:12:04.996Z,99628.00
2019-04-06T17:14:55.765Z,99629.00
2019-04-06T17:17:45.453Z,99631.00
2019-04-06T17:20:39.995Z,99624.00
2019-04-06T17:23:23.354Z,99628.00
2019-04-06T17:26:10.527Z,99627.00
2019-04-06T17:29:02.588Z,99628.00
2019-04-06T17:31:49.277Z,99625.00
2019-04-06T17:34:53.853Z,99631.00
2019-04-06T17:37:45.335Z,99616.00
2019-04-06T17:40:38.978Z,99624.00
2019-04-06T17:43:34.027Z,99626.00
2019-04-06T17:46:31.524Z,99621.00
2019-04-06T17:49:10.190Z,99625.00
2019-04-06T17:51:47.981Z,99636.00
2019-04-06T17:54:42.352Z,99633.00
2019-04-06T17:57:42.669Z,99628.00
2019-04-06T18:00:29.642Z,99632.00
2019-04-06T18:03:20.648Z,99639.00
2019-04-06T18:06:06.144Z,99637.00
2019-04-06T18:08:52.596Z,99635.00
2019-04-06T18:11:43.682Z,99635.00
2019-04-06T18:14:12.629Z,99638.00
2019-04-06T18:16:41.246Z,99639.00
2019-04-06T18:19:10.218Z,99640.00
2019-04-06T18:21:39.158Z,99631.00
2019-04-06T18:24:08.332Z,99635.00
2019-04-06T18:26:36.832Z,99639.00
2019-04-06T18:29:05.534Z,99629.00
2019-04-06T18:31:50.494Z,99640.00
2019-04-06T18:34:21.072Z,99632.00
2019-04-06T18:37:22.801Z,99632.00
2019-04-06T18:39:54.890Z,99636.00
2019-04-06T18:42:24.467Z,99636.00
2019-04-06T18:44:53.056Z,99626.00
2019-04-06T18:47:21.998Z,99629.00
2019-04-06T18:49:50.407Z,99622.00
2019-04-06T18:52:19.302Z,99623.00
2019-04-06T18:54:48.233Z,99616.00
2019-04-06T18:57:17.314Z,99619.00
2019-04-06T18:59:46.104Z,99613.00
2019-04-06T19:02:14.803Z,99604.00
2019-04-06T19:04:44.009Z,99611.00
2019-04-06T19:07:12.664Z,99613.00
2019-04-06T19:09:41.554Z,99615.00
2019-04-06T19:12:10.056Z,99610.00
2019-04-06T19:14:38.509Z,99603.00
2019-04-06T19:17:07.497Z,99602.00
2019-04-06T19:19:36.370Z,99601.00
2019-04-06T19:22:05.150Z,99594.00
2019-04-06T19:24:34.036Z,99587.00
2019-04-06T19:27:03.420Z,99592.00
2019-04-06T19:29:32.908Z,99590.00
2019-04-06T19:32:02.845Z,99589.00
2019-04-06T19:34:33.360Z,99586.00
2019-04-06T19:37:03.917Z,99572.00
2019-04-06T19:39:32.615Z,99582.00
2019-04-06T19:42:00.895Z,99574.00
2019-04-06T19:44:29.799Z,99572.00
2019-04-06T19:46:58.620Z,99562.00
2019-04-06T19:49:27.698Z,99557.00
2019-04-06T19:51:57.088Z,99570.00
2019-04-06T19:54:25.817Z,99560.00
2019-04-06T19:56:54.338Z,99563.00
2019-04-06T19:59:22.983Z,99557.00
2019-04-06T20:01:51.934Z,99551.00
2019-04-06T20:04:20.709Z,99550.00
2019-04-06T20:06:50.448Z,99551.00
2019-04-06T20:09:19.803Z,99545.00
2019-04-06T20:11:48.759Z,99546.00
2019-04-06T20:14:17.896Z,99546.00
2019-04-06T20:16:46.559Z,99538.00
2019-04-06T20:19:15.231Z,99533.00
2019-04-06T20:21:43.954Z,99527.00
2019-04-06T20:24:12.812Z,99529.00
2019-04-06T20:26:41.633Z,99528.00
2019-04-06T20:29:10.309Z,99535.00
2019-04-06T20:31:38.665Z,99517.00
2019-04-06T20:34:07.775Z,99518.00
2019-04-06T20:36:38.227Z,99521.00
2019-04-06T20:39:09.402Z,99519.00
2019-04-06T20:41:38.182Z,99514.00
2019-04-06T20:44:07.636Z,99519.00
2019-04-06T20:46:36.486Z,99509.00
2019-04-06T20:49:05.538Z,99510.00
2019-04-06T20:51:34.461Z,99510.00
2019-04-06T20:54:04.298Z,99502.00
2019-04-06T20:56:33.028Z,99506.00
2019-04-06T20:59:02.946Z,99504.00
2019-04-06T21:01:32.325Z,99491.00
2019-04-06T21:04:03.182Z,99495.00
2019-04-06T21:06:32.452Z,99492.00
2019-04-06T21:09:04.339Z,99495.00
2019-04-06T21:11:34.016Z,99486.00
2019-04-06T21:14:03.334Z,99491.00
2019-04-06T21:16:32.421Z,99488.00
2019-04-06T21:19:02.879Z,99496.00
2019-04-06T21:21:31.506Z,99496.00
2019-04-06T21:24:00.456Z,99493.00
2019-04-06T21:26:30.049Z,99493.00
2019-04-06T21:28:59.388Z,99489.00
2019-04-06T21:31:27.749Z,99483.00
2019-04-06T21:33:57.137Z,99484.00
2019-04-06T21:36:25.680Z,99480.00
2019-04-06T21:38:57.084Z,99481.00
2019-04-06T21:41:28.931Z,99485.00
2019-04-06T21:43:57.668Z,99482.00
2019-04-06T21:46:26.356Z,99487.00
2019-04-06T21:48:55.047Z,99475.00
2019-04-06T21:51:24.123Z,99477.00
2019-04-06T21:53:52.972Z,99477.00
2019-04-06T21:56:21.548Z,99475.00
2019-04-06T21:58:50.441Z,99469.00
2019-04-06T22:01:20.938Z,99466.00
2019-04-06T22:03:50.665Z,99470.00
2019-04-06T22:06:20.607Z,99461.00
2019-04-06T22:08:50.100Z,99459.00
2019-04-06T22:11:18.825Z,99456.00
2019-04-06T22:13:47.483Z,99456.00
2019-04-06T22:16:16.693Z,99462.00
2019-04-06T22:18:45.403Z,99453.00
2019-04-06T22:21:14.753Z,99458.00
2019-04-06T22:23:45.076Z,99455.00
2019-04-06T22:26:14.566Z,99451.00
2019-04-06T22:28:43.519Z,99447.00
2019-04-06T22:31:12.360Z,99449.00
2019-04-06T22:33:40.907Z,99433.00
2019-04-06T22:36:10.053Z,99441.00
2019-04-06T22:38:38.900Z,99435.00
2019-04-06T22:41:09.181Z,99438.00
2019-04-06T22:43:40.045Z,99441.00
2019-04-06T22:46:09.276Z,99437.00
2019-04-06T22:48:38.294Z,99430.00
2019-04-06T22:51:07.012Z,99434.00
2019-04-06T22:53:36.015Z,99437.00
2019-04-06T22:56:04.653Z,99428.00
2019-04-06T22:58:33.527Z,99430.00
2019-04-06T23:01:10.975Z,99426.00
2019-04-06T23:03:59.567Z,99422.00
2019-04-06T23:06:34.113Z,99420.00
2019-04-06T23:09:05.607Z,99420.00
2019-04-06T23:11:34.417Z,99410.00
2019-04-06T23:14:03.256Z,99420.00
2019-04-06T23:16:31.796Z,99414.00
2019-04-06T23:19:00.366Z,99411.00
2019-04-06T23:21:29.962Z,99414.00
2019-04-06T23:23:59.218Z,99407.00
2019-04-06T23:26:27.967Z,99416.00
2019-04-06T23:28:56.745Z,99413.00
2019-04-06T23:31:25.768Z,99414.00
2019-04-06T23:33:55.060Z,99406.00
2019-04-06T23:36:24.936Z,99402.00
2019-04-06T23:38:53.478Z,99401.00
2019-04-06T23:41:23.730Z,99402.00
2019-04-06T23:43:53.780Z,99402.00
2019-04-06T23:46:22.391Z,99405.00
2019-04-06T23:48:51.000Z,99396.00
2019-04-06T23:51:20.036Z,99397.00
2019-04-06T23:53:49.034Z,99388.00
2019-04-06T23:56:18.702Z,99394.00
2019-04-06T23:58:47.319Z,99392.00
